createdAt,value
2023-01-23T00:01:35.580Z,7.36
2023-01-23T00:04:06.009Z,7.36
2023-01-23T00:06:34.089Z,7.26
2023-01-23T00:09:02.081Z,7.35
2023-01-23T00:11:30.530Z,7.36
2023-01-23T00:13:59.423Z,7.37
2023-01-23T00:16:30.592Z,7.42
2023-01-23T00:18:58.869Z,7.40
2023-01-23T00:21:29.423Z,7.33
2023-01-23T00:23:59.870Z,7.35
2023-01-23T00:26:30.258Z,7.31
2023-01-23T00:28:58.300Z,7.27
2023-01-23T00:31:30.754Z,7.26
2023-01-23T00:34:02.021Z,7.21
2023-01-23T00:36:48.097Z,7.35
2023-01-23T00:39:21.594Z,7.50
2023-01-23T00:41:49.825Z,7.48
2023-01-23T00:44:17.928Z,7.45
2023-01-23T00:46:46.310Z,7.38
2023-01-23T00:49:14.305Z,7.27
2023-01-23T00:51:45.463Z,7.13
2023-01-23T00:54:13.354Z,7.16
2023-01-23T00:56:41.350Z,7.26
2023-01-23T00:59:09.415Z,7.37
2023-01-23T01:01:38.202Z,7.35
2023-01-23T01:04:06.548Z,7.41
2023-01-23T01:06:34.493Z,7.19
2023-01-23T01:09:02.922Z,7.16
2023-01-23T01:11:30.962Z,7.20
2023-01-23T01:14:01.570Z,7.34
2023-01-23T01:16:29.773Z,7.35
2023-01-23T01:18:59.507Z,7.36
2023-01-23T01:21:27.821Z,7.32
2023-01-23T01:23:56.053Z,7.14
2023-01-23T01:26:25.141Z,7.19
2023-01-23T01:28:53.033Z,7.19
2023-01-23T01:31:20.933Z,7.27
2023-01-23T01:33:50.058Z,7.27
2023-01-23T01:36:21.841Z,7.35
2023-01-23T01:38:49.751Z,7.24
2023-01-23T01:41:18.247Z,7.22
2023-01-23T01:43:46.751Z,7.29
2023-01-23T01:46:23.256Z,7.14
2023-01-23T01:48:59.263Z,7.10
2023-01-23T01:51:33.279Z,7.01
2023-01-23T01:54:03.631Z,7.01
2023-01-23T01:56:35.781Z,6.95
2023-01-23T01:59:05.114Z,6.97
2023-01-23T02:01:33.543Z,7.03
2023-01-23T02:04:05.191Z,7.03
2023-01-23T02:06:33.301Z,6.89
2023-01-23T02:09:17.904Z,7.10
2023-01-23T02:11:47.094Z,7.14
2023-01-23T02:14:15.151Z,7.22
2023-01-23T02:16:50.428Z,7.11
2023-01-23T02:19:32.451Z,7.16
2023-01-23T02:22:12.639Z,7.13
2023-01-23T02:24:50.165Z,7.06
2023-01-23T02:27:19.820Z,7.13
2023-01-23T02:29:48.671Z,7.17
2023-01-23T02:32:17.146Z,7.32
2023-01-23T02:34:45.365Z,7.16
2023-01-23T02:37:14.773Z,7.07
2023-01-23T02:39:42.841Z,7.10
2023-01-23T02:42:13.241Z,7.15
2023-01-23T02:44:46.844Z,7.12
2023-01-23T02:47:16.911Z,7.02
2023-01-23T02:49:45.171Z,7.02
2023-01-23T02:52:13.456Z,7.10
2023-01-23T02:54:41.402Z,7.16
2023-01-23T02:57:11.022Z,7.16
2023-01-23T02:59:58.282Z,7.18
2023-01-23T03:02:27.980Z,7.29
2023-01-23T03:04:56.073Z,7.24
2023-01-23T03:07:24.112Z,7.33
2023-01-23T03:09:52.236Z,7.19
2023-01-23T03:12:20.321Z,7.19
2023-01-23T03:14:50.151Z,7.13
2023-01-23T03:17:19.501Z,7.23
2023-01-23T03:19:47.521Z,7.32
2023-01-23T03:22:15.832Z,7.36
2023-01-23T03:24:43.873Z,7.44
2023-01-23T03:27:11.921Z,7.44
2023-01-23T03:30:03.433Z,7.45
2023-01-23T03:32:31.655Z,7.31
2023-01-23T03:35:00.117Z,7.40
2023-01-23T03:37:29.075Z,7.38
2023-01-23T03:40:17.593Z,7.41
2023-01-23T03:42:45.594Z,7.35
2023-01-23T03:45:16.315Z,7.58
2023-01-23T03:47:44.417Z,7.52
2023-01-23T03:50:12.439Z,7.47
2023-01-23T03:52:41.351Z,7.51
2023-01-23T03:55:10.434Z,7.52
2023-01-23T03:57:39.395Z,7.56
2023-01-23T04:00:08.210Z,7.59
2023-01-23T04:02:44.273Z,7.66
2023-01-23T04:05:15.120Z,7.68
2023-01-23T04:07:43.031Z,7.62
2023-01-23T04:10:13.136Z,7.62
2023-01-23T04:12:43.441Z,7.63
2023-01-23T04:15:12.554Z,7.51
2023-01-23T04:17:42.426Z,7.49
2023-01-23T04:20:11.903Z,7.51
2023-01-23T04:22:43.284Z,7.54
2023-01-23T04:25:11.537Z,7.44
2023-01-23T04:27:39.662Z,7.52
2023-01-23T04:30:10.261Z,7.45
2023-01-23T04:32:38.322Z,7.50
2023-01-23T04:35:06.794Z,7.50
2023-01-23T04:37:37.362Z,7.52
2023-01-23T04:40:05.992Z,7.58
2023-01-23T04:42:42.680Z,7.51
2023-01-23T04:45:30.925Z,7.39
2023-01-23T04:48:19.903Z,7.53
2023-01-23T04:50:50.109Z,7.63
2023-01-23T04:53:18.361Z,7.61
2023-01-23T04:55:50.112Z,7.56
2023-01-23T04:58:19.981Z,7.59
2023-01-23T05:00:48.167Z,7.52
2023-01-23T05:03:17.344Z,7.37
2023-01-23T05:05:48.548Z,7.37
2023-01-23T05:08:16.801Z,7.48
2023-01-23T05:10:51.286Z,7.54
2023-01-23T05:13:21.052Z,7.57
2023-01-23T05:15:49.021Z,7.59
2023-01-23T05:18:17.965Z,7.69
2023-01-23T05:20:47.256Z,7.47
2023-01-23T05:23:15.394Z,7.62
2023-01-23T05:25:50.675Z,7.61
2023-01-23T05:28:18.723Z,7.61
2023-01-23T05:30:53.755Z,7.66
2023-01-23T05:33:28.863Z,7.67
2023-01-23T05:36:00.722Z,7.61
2023-01-23T05:38:28.871Z,7.63
2023-01-23T05:40:56.912Z,7.67
2023-01-23T05:44:03.536Z,7.49
2023-01-23T05:46:41.400Z,7.51
2023-01-23T05:49:09.635Z,7.49
2023-01-23T05:51:38.518Z,7.43
2023-01-23T05:54:07.948Z,7.33
2023-01-23T05:56:36.164Z,7.39
2023-01-23T05:59:22.622Z,7.39
2023-01-23T06:02:11.073Z,7.34
2023-01-23T06:04:57.335Z,7.38
2023-01-23T06:07:35.793Z,7.38
2023-01-23T06:10:10.016Z,7.53
2023-01-23T06:12:38.245Z,7.41
2023-01-23T06:15:06.564Z,7.36
2023-01-23T06:17:34.691Z,7.33
2023-01-23T06:20:03.469Z,7.53
2023-01-23T06:22:32.176Z,7.44
2023-01-23T06:25:07.985Z,7.51
2023-01-23T06:27:35.973Z,7.45
2023-01-23T06:30:07.420Z,7.50
2023-01-23T06:32:40.508Z,7.49
2023-01-23T06:35:09.922Z,7.30
2023-01-23T06:37:41.162Z,7.26
2023-01-23T06:40:14.830Z,7.31
2023-01-23T06:42:54.391Z,7.34
2023-01-23T06:45:22.647Z,7.44
2023-01-23T06:47:54.887Z,7.19
2023-01-23T06:50:23.671Z,7.10
2023-01-23T06:52:51.507Z,7.01
2023-01-23T06:55:21.432Z,6.86
2023-01-23T06:57:49.811Z,6.96
2023-01-23T07:00:18.422Z,7.03
2023-01-23T07:02:46.876Z,7.03
2023-01-23T07:05:15.351Z,7.21
2023-01-23T07:07:46.958Z,7.21
2023-01-23T07:10:14.876Z,7.12
2023-01-23T07:12:43.338Z,7.00
2023-01-23T07:15:11.764Z,7.11
2023-01-23T07:17:41.463Z,7.06
2023-01-23T07:20:10.168Z,7.10
2023-01-23T07:22:43.245Z,7.01
2023-01-23T07:25:11.205Z,7.01
2023-01-23T07:27:39.082Z,6.96
2023-01-23T07:30:07.611Z,6.99
2023-01-23T07:32:35.521Z,7.07
2023-01-23T07:35:03.481Z,7.13
2023-01-23T07:37:31.523Z,7.14
2023-01-23T07:39:59.386Z,7.13
2023-01-23T07:42:27.344Z,7.08
2023-01-23T07:44:55.181Z,7.12
2023-01-23T07:47:23.028Z,7.23
2023-01-23T07:49:50.919Z,7.22
2023-01-23T07:52:18.824Z,7.42
2023-01-23T07:54:46.708Z,7.40
2023-01-23T07:57:15.133Z,7.53
2023-01-23T07:59:43.011Z,7.58
2023-01-23T08:02:11.525Z,7.56
2023-01-23T08:04:39.739Z,7.55
2023-01-23T08:07:07.636Z,7.70
2023-01-23T08:09:35.633Z,7.63
2023-01-23T08:12:03.711Z,7.67
2023-01-23T08:14:31.715Z,7.68
2023-01-23T08:17:01.764Z,7.69
2023-01-23T08:19:29.682Z,7.74
2023-01-23T08:21:57.532Z,7.77
2023-01-23T08:24:25.433Z,7.64
2023-01-23T08:26:53.288Z,7.55
2023-01-23T08:29:21.200Z,7.50
2023-01-23T08:31:49.106Z,7.43
2023-01-23T08:34:16.973Z,7.53
2023-01-23T08:36:44.800Z,7.51
2023-01-23T08:39:12.631Z,7.64
2023-01-23T08:41:40.462Z,7.69
2023-01-23T08:44:08.378Z,7.62
2023-01-23T08:46:36.282Z,7.57
2023-01-23T08:49:05.206Z,7.63
2023-01-23T08:51:33.931Z,7.64
2023-01-23T08:54:01.826Z,7.60
2023-01-23T08:56:29.739Z,7.66
2023-01-23T08:58:57.740Z,7.49
2023-01-23T09:01:27.215Z,7.33
2023-01-23T09:03:55.351Z,7.36
2023-01-23T09:06:23.549Z,7.37
2023-01-23T09:08:51.619Z,7.31
2023-01-23T09:11:20.113Z,7.24
2023-01-23T09:13:48.214Z,7.31
2023-01-23T09:16:17.275Z,7.26
2023-01-23T09:18:45.281Z,7.52
2023-01-23T09:21:17.574Z,7.43
2023-01-23T09:23:45.736Z,7.31
2023-01-23T09:26:15.388Z,7.29
2023-01-23T09:28:43.793Z,7.22
2023-01-23T09:31:14.170Z,7.45
2023-01-23T09:33:42.532Z,7.48
2023-01-23T09:36:11.601Z,7.46
2023-01-23T09:38:39.752Z,7.50
2023-01-23T09:41:17.606Z,7.47
2023-01-23T09:43:54.432Z,7.54
2023-01-23T09:46:29.230Z,7.56
2023-01-23T09:49:09.469Z,7.56
2023-01-23T09:52:02.263Z,7.75
2023-01-23T09:54:44.735Z,7.79
2023-01-23T09:57:16.629Z,7.85
2023-01-23T10:00:00.163Z,7.89
2023-01-23T10:02:31.049Z,7.82
2023-01-23T10:05:02.985Z,7.89
2023-01-23T10:07:40.591Z,8.01
2023-01-23T10:10:45.952Z,7.98
2023-01-23T10:13:23.234Z,8.02
2023-01-23T10:16:13.735Z,7.93
2023-01-23T10:19:08.089Z,7.99
2023-01-23T10:22:22.847Z,8.09
2023-01-23T10:24:55.140Z,7.95
2023-01-23T10:27:26.901Z,8.00
2023-01-23T10:30:29.955Z,7.94
2023-01-23T10:32:57.811Z,7.88
2023-01-23T10:35:47.513Z,7.81
2023-01-23T10:38:35.355Z,7.72
2023-01-23T10:41:15.310Z,7.77
2023-01-23T10:43:46.343Z,7.53
2023-01-23T10:46:20.408Z,7.56
2023-01-23T10:48:52.682Z,7.68
2023-01-23T10:51:38.703Z,7.72
2023-01-23T10:54:11.363Z,7.76
2023-01-23T10:57:03.272Z,7.82
2023-01-23T10:59:36.238Z,7.70
2023-01-23T11:02:31.496Z,7.92
2023-01-23T11:05:00.636Z,7.89
2023-01-23T11:07:33.441Z,7.91
2023-01-23T11:10:07.722Z,7.95
2023-01-23T11:12:48.101Z,8.06
2023-01-23T11:15:27.260Z,8.14
2023-01-23T11:17:57.023Z,8.26
2023-01-23T11:20:37.430Z,8.31
2023-01-23T11:23:08.710Z,8.30
2023-01-23T11:25:42.426Z,8.45
2023-01-23T11:28:48.769Z,8.49
2023-01-23T11:31:21.846Z,8.43
2023-01-23T11:34:10.484Z,8.37
2023-01-23T11:37:08.333Z,8.36
2023-01-23T11:40:15.470Z,8.45
2023-01-23T11:42:44.162Z,8.43
2023-01-23T11:45:36.131Z,8.29
2023-01-23T11:48:42.510Z,8.37
2023-01-23T11:51:38.431Z,8.24
2023-01-23T11:54:30.266Z,8.25
2023-01-23T11:57:24.625Z,8.42
2023-01-23T12:00:02.189Z,8.62
2023-01-23T12:03:04.584Z,8.69
2023-01-23T12:05:38.856Z,8.79
2023-01-23T12:08:35.775Z,8.77
2023-01-23T12:11:16.558Z,8.97
2023-01-23T12:14:18.621Z,9.00
2023-01-23T12:16:53.973Z,8.92
2023-01-23T12:19:40.551Z,8.93
2023-01-23T12:22:11.307Z,8.91
2023-01-23T12:24:47.097Z,8.92
2023-01-23T12:27:24.197Z,8.94
2023-01-23T12:30:23.221Z,9.05
2023-01-23T12:33:19.467Z,9.13
2023-01-23T12:35:54.480Z,9.12
2023-01-23T12:38:28.576Z,9.25
2023-01-23T12:41:14.732Z,9.27
2023-01-23T12:43:59.816Z,9.30
2023-01-23T12:46:44.487Z,9.40
2023-01-23T12:49:21.623Z,9.45
2023-01-23T12:52:18.474Z,9.49
2023-01-23T12:54:52.211Z,9.59
2023-01-23T12:57:52.598Z,9.66
2023-01-23T13:00:53.173Z,9.84
2023-01-23T13:03:51.952Z,10.01
2023-01-23T13:06:37.465Z,10.03
2023-01-23T13:09:20.186Z,10.10
2023-01-23T13:12:08.972Z,10.23
2023-01-23T13:15:13.930Z,10.28
2023-01-23T13:17:45.420Z,10.34
2023-01-23T13:20:38.645Z,10.55
2023-01-23T13:23:24.796Z,10.64
2023-01-23T13:26:16.041Z,10.83
2023-01-23T13:28:57.820Z,10.91
2023-01-23T13:31:47.143Z,10.83
2023-01-23T13:34:18.559Z,10.82
2023-01-23T13:36:51.567Z,10.70
2023-01-23T13:39:30.317Z,10.70
2023-01-23T13:42:16.229Z,10.64
2023-01-23T13:45:27.483Z,10.64
2023-01-23T15:05:59.643Z,10.54
2023-01-23T15:08:32.511Z,10.50
2023-01-23T15:11:01.950Z,10.55
2023-01-23T15:13:35.717Z,10.41
2023-01-23T15:16:07.106Z,10.31
2023-01-23T15:18:36.647Z,10.37
2023-01-23T15:21:08.934Z,10.31
2023-01-23T15:23:38.850Z,10.23
2023-01-23T15:26:18.870Z,10.27
2023-01-23T15:28:57.761Z,10.19
2023-01-23T15:31:33.614Z,10.17
2023-01-23T15:34:20.730Z,10.12
2023-01-23T15:37:19.167Z,10.17
2023-01-23T15:39:47.008Z,10.17
2023-01-23T15:42:14.923Z,10.13
2023-01-23T15:44:43.644Z,10.16
2023-01-23T15:47:11.727Z,10.13
2023-01-23T15:49:40.651Z,10.14
2023-01-23T15:52:46.227Z,10.10
2023-01-23T15:55:15.315Z,10.03
2023-01-23T15:57:43.992Z,9.98
2023-01-23T16:00:16.775Z,9.98
2023-01-23T16:02:55.741Z,9.96
2023-01-23T16:05:37.504Z,9.96
2023-01-23T16:08:14.148Z,9.87
2023-01-23T16:10:42.230Z,9.96
2023-01-23T16:13:14.125Z,9.86
2023-01-23T16:15:42.372Z,9.90
2023-01-23T16:18:10.653Z,9.88
2023-01-23T16:20:43.815Z,9.88
2023-01-23T16:23:15.549Z,9.89
2023-01-23T16:25:46.140Z,9.90
2023-01-23T16:28:21.378Z,9.85
2023-01-23T16:30:52.013Z,9.73
2023-01-23T16:33:21.036Z,9.78
2023-01-23T16:35:51.087Z,9.77
2023-01-23T16:38:28.301Z,9.86
2023-01-23T16:40:59.759Z,9.86
2023-01-23T16:43:28.076Z,9.89
2023-01-23T16:45:56.879Z,9.89
2023-01-23T16:48:28.506Z,9.86
2023-01-23T16:51:08.607Z,9.90
2023-01-23T16:53:40.985Z,9.86
2023-01-23T16:56:20.568Z,9.87
2023-01-23T16:58:49.732Z,9.86
2023-01-23T17:01:23.308Z,9.78
2023-01-23T17:04:04.056Z,9.80
2023-01-23T17:06:32.332Z,9.83
2023-01-23T17:09:00.278Z,9.81
2023-01-23T17:11:34.366Z,9.85
2023-01-23T17:14:09.550Z,9.84
2023-01-23T17:16:37.505Z,9.90
2023-01-23T17:19:16.668Z,9.86
2023-01-23T17:21:46.225Z,9.81
2023-01-23T17:24:17.989Z,9.80
2023-01-23T17:26:46.459Z,9.83
2023-01-23T17:29:15.413Z,9.82
2023-01-23T17:31:43.851Z,9.85
2023-01-23T17:34:24.332Z,9.89
2023-01-23T17:36:54.612Z,9.79
2023-01-23T17:39:22.674Z,9.82
2023-01-23T17:41:51.607Z,9.79
2023-01-23T17:44:19.626Z,9.66
2023-01-23T17:46:48.036Z,9.64
2023-01-23T17:49:30.539Z,9.55
2023-01-23T17:51:59.801Z,9.62
2023-01-23T17:54:29.072Z,9.61
2023-01-23T17:56:56.990Z,9.59
2023-01-23T17:59:25.110Z,9.57
2023-01-23T18:01:53.258Z,9.57
2023-01-23T18:04:23.067Z,9.57
2023-01-23T18:06:51.497Z,9.62
2023-01-23T18:09:20.557Z,9.66
2023-01-23T18:11:52.722Z,9.70
2023-01-23T18:14:48.099Z,9.69
2023-01-23T18:17:28.847Z,9.65
2023-01-23T18:19:57.108Z,9.72
2023-01-23T18:22:25.358Z,9.73
2023-01-23T18:24:53.551Z,9.74
2023-01-23T18:27:26.607Z,9.75
2023-01-23T18:30:18.737Z,9.83
2023-01-23T18:32:46.643Z,9.78
2023-01-23T18:35:35.475Z,9.87
2023-01-23T18:38:06.161Z,9.86
2023-01-23T18:40:58.331Z,9.93
2023-01-23T18:43:33.927Z,9.89
2023-01-23T18:46:02.094Z,9.86
2023-01-23T18:48:30.507Z,9.91
2023-01-23T18:51:14.247Z,9.86
2023-01-23T18:53:50.908Z,9.97
2023-01-23T18:56:24.970Z,10.04
2023-01-23T18:59:12.048Z,9.96
2023-01-23T19:02:09.855Z,9.99
2023-01-23T19:04:45.935Z,9.83
2023-01-23T19:07:19.087Z,9.68
2023-01-23T19:09:48.670Z,9.56
2023-01-23T19:12:41.771Z,9.34
2023-01-23T19:15:33.444Z,9.35
2023-01-23T19:18:40.498Z,9.30
2023-01-23T19:21:23.723Z,9.32
2023-01-23T19:24:02.009Z,9.22
2023-01-23T19:26:34.509Z,9.29
2023-01-23T19:29:19.990Z,9.44
2023-01-23T19:32:03.701Z,9.41
2023-01-23T19:34:34.992Z,9.36
2023-01-23T19:37:03.615Z,9.46
2023-01-23T19:39:31.853Z,9.40
2023-01-23T19:42:00.439Z,9.51
2023-01-23T19:44:36.789Z,9.45
2023-01-23T19:47:34.214Z,9.52
2023-01-23T19:50:03.333Z,9.53
2023-01-23T19:52:32.472Z,9.50
2023-01-23T19:55:00.835Z,9.58
2023-01-23T19:57:29.767Z,9.56
2023-01-23T19:59:57.903Z,9.56
2023-01-23T20:02:27.000Z,9.62
2023-01-23T20:04:57.972Z,9.63
2023-01-23T20:07:27.483Z,9.64
2023-01-23T20:09:56.070Z,9.75
2023-01-23T20:12:24.208Z,9.82
2023-01-23T20:14:52.623Z,9.79
2023-01-23T20:17:20.983Z,9.79
2023-01-23T20:19:49.427Z,9.83
2023-01-23T20:22:19.603Z,9.84
2023-01-23T20:24:47.899Z,9.77
2023-01-23T20:27:15.941Z,9.80
2023-01-23T20:29:43.895Z,9.73
2023-01-23T20:32:13.209Z,9.74
2023-01-23T20:34:42.019Z,9.67
2023-01-23T20:37:11.492Z,9.61
2023-01-23T20:39:41.831Z,9.48
2023-01-23T20:42:11.444Z,9.49
2023-01-23T20:44:41.397Z,9.50
2023-01-23T20:47:11.009Z,9.37
2023-01-23T20:49:39.789Z,9.37
2023-01-23T20:52:26.201Z,9.45
2023-01-23T20:54:54.712Z,9.42
2023-01-23T20:57:22.749Z,9.40
2023-01-23T20:59:51.040Z,9.45
2023-01-23T21:02:25.791Z,9.37
2023-01-23T21:04:54.143Z,9.44
2023-01-23T21:07:22.859Z,9.43
2023-01-23T21:09:51.309Z,9.46
2023-01-23T21:12:19.584Z,9.44
2023-01-23T21:14:47.639Z,9.42
2023-01-23T21:17:15.731Z,9.39
2023-01-23T21:19:45.429Z,9.40
2023-01-23T21:22:13.801Z,9.47
2023-01-23T21:24:41.988Z,9.42
2023-01-23T21:27:10.160Z,9.49
2023-01-23T21:29:38.703Z,9.52
2023-01-23T21:32:06.737Z,9.44
2023-01-23T21:34:34.809Z,9.53
2023-01-23T21:37:05.071Z,9.56
2023-01-23T21:39:35.234Z,9.50
2023-01-23T21:42:03.275Z,9.43
2023-01-23T21:44:31.696Z,9.47
2023-01-23T21:47:00.699Z,9.43
2023-01-23T21:49:30.674Z,9.31
2023-01-23T21:51:58.634Z,9.25
2023-01-23T21:54:26.719Z,9.26
2023-01-23T21:56:54.821Z,9.30
2023-01-23T21:59:22.829Z,9.30
2023-01-23T22:01:50.858Z,9.25
2023-01-23T22:04:23.488Z,9.20
2023-01-23T22:06:57.052Z,9.29
2023-01-23T22:09:26.200Z,9.32
2023-01-23T22:11:55.084Z,9.37
2023-01-23T22:14:24.236Z,9.37
2023-01-23T22:16:52.907Z,9.24
2023-01-23T22:19:25.627Z,9.24
2023-01-23T22:21:55.427Z,9.31
2023-01-23T22:24:23.836Z,9.30
2023-01-23T22:26:51.961Z,9.25
2023-01-23T22:29:20.064Z,9.32
2023-01-23T22:31:48.156Z,9.32
2023-01-23T22:34:16.224Z,9.26
2023-01-23T22:36:44.124Z,9.26
2023-01-23T22:39:16.443Z,9.28
2023-01-23T22:41:46.372Z,9.25
2023-01-23T22:44:14.598Z,9.26
2023-01-23T22:46:43.065Z,9.21
2023-01-23T22:49:11.402Z,9.30
2023-01-23T22:51:39.426Z,9.27
2023-01-23T22:54:07.608Z,9.33
2023-01-23T22:56:35.723Z,9.36
2023-01-23T22:59:04.235Z,9.35
2023-01-23T23:01:32.374Z,9.26
2023-01-23T23:04:00.641Z,9.27
2023-01-23T23:06:28.994Z,9.26
2023-01-23T23:08:56.962Z,9.25
2023-01-23T23:11:27.872Z,9.23
2023-01-23T23:13:57.418Z,9.08
2023-01-23T23:16:28.705Z,8.98
2023-01-23T23:18:59.584Z,9.04
2023-01-23T23:21:31.789Z,8.99
2023-01-23T23:24:00.887Z,8.98
2023-01-23T23:26:31.655Z,8.93
2023-01-23T23:29:02.893Z,8.88
2023-01-23T23:31:31.142Z,8.83
2023-01-23T23:33:59.240Z,8.85
2023-01-23T23:36:27.456Z,8.63
2023-01-23T23:38:55.419Z,8.77
2023-01-23T23:41:23.356Z,8.85
2023-01-23T23:43:51.783Z,8.84
2023-01-23T23:46:19.898Z,8.90
2023-01-23T23:48:48.344Z,8.89
2023-01-23T23:51:18.983Z,8.88
2023-01-23T23:53:46.911Z,8.86
2023-01-23T23:56:26.813Z,8.89
2023-01-23T23:58:56.079Z,8.95
